createdAt,value
2022-09-26T00:01:17.672Z,35.20
2022-09-26T00:03:52.096Z,34.30
2022-09-26T00:06:20.681Z,37.30
2022-09-26T00:08:49.082Z,35.10
2022-09-26T00:11:20.307Z,31.10
2022-09-26T00:13:53.044Z,33.30
2022-09-26T00:16:20.644Z,33.20
2022-09-26T00:18:49.638Z,38.50
2022-09-26T00:21:17.709Z,36.60
2022-09-26T00:23:44.887Z,34.90
2022-09-26T00:26:13.658Z,31.40
2022-09-26T00:28:40.996Z,31.40
2022-09-26T00:31:22.428Z,31.10
2022-09-26T00:33:49.587Z,33.00
2022-09-26T00:36:16.782Z,31.10
2022-09-26T00:38:43.988Z,31.30
2022-09-26T00:41:12.040Z,36.10
2022-09-26T00:43:44.786Z,29.60
2022-09-26T00:46:39.846Z,32.70
2022-09-26T00:49:28.561Z,31.00
2022-09-26T00:52:08.659Z,32.10
2022-09-26T00:54:38.428Z,34.60
2022-09-26T00:57:10.830Z,31.10
2022-09-26T00:59:43.344Z,33.30
2022-09-26T01:02:11.578Z,33.40
2022-09-26T01:04:41.940Z,32.60
2022-09-26T01:07:16.836Z,34.10
2022-09-26T01:09:44.724Z,33.60
2022-09-26T01:12:13.111Z,36.10
2022-09-26T01:14:41.586Z,32.80
2022-09-26T01:17:10.462Z,35.70
2022-09-26T01:19:57.300Z,31.80
2022-09-26T01:23:01.795Z,31.50
2022-09-26T01:25:58.212Z,34.10
2022-09-26T01:28:43.641Z,33.50
2022-09-26T01:32:09.032Z,32.70
2022-09-26T01:34:52.992Z,32.80
2022-09-26T01:37:22.731Z,33.10
2022-09-26T01:40:31.287Z,34.40
2022-09-26T01:43:15.856Z,36.60
2022-09-26T01:45:56.773Z,36.70
2022-09-26T01:48:50.222Z,33.30
2022-09-26T01:51:39.021Z,35.40
2022-09-26T01:54:13.551Z,34.30
2022-09-26T01:56:45.600Z,33.70
2022-09-26T01:59:22.919Z,33.90
2022-09-26T02:01:53.177Z,32.70
2022-09-26T02:04:25.661Z,35.20
2022-09-26T02:07:00.496Z,34.60
2022-09-26T02:09:42.393Z,37.90
2022-09-26T02:12:13.101Z,35.20
2022-09-26T02:17:12.745Z,37.00
2022-09-26T02:19:50.630Z,36.10
2022-09-26T02:22:18.415Z,34.00
2022-09-26T02:24:45.431Z,33.30
2022-09-26T02:27:12.857Z,35.20
2022-09-26T02:29:40.226Z,35.70
2022-09-26T02:32:15.670Z,34.80
2022-09-26T02:34:46.958Z,33.60
2022-09-26T02:37:16.268Z,32.60
2022-09-26T02:39:45.406Z,37.30
2022-09-26T02:42:36.378Z,37.60
2022-09-26T02:45:29.358Z,35.40
2022-09-26T02:47:56.436Z,35.70
2022-09-26T02:50:41.859Z,34.70
2022-09-26T02:53:17.890Z,37.50
2022-09-26T02:56:11.144Z,34.70
2022-09-26T02:58:54.291Z,34.80
2022-09-26T03:01:34.676Z,34.00
2022-09-26T03:04:29.573Z,37.10
2022-09-26T03:07:02.761Z,35.00
2022-09-26T03:09:31.763Z,34.40
2022-09-26T03:12:02.245Z,34.90
2022-09-26T03:14:32.836Z,37.60
2022-09-26T03:17:01.400Z,35.40
2022-09-26T03:19:41.110Z,36.40
2022-09-26T03:22:08.992Z,34.70
2022-09-26T03:24:36.799Z,34.80
2022-09-26T03:27:05.821Z,35.40
2022-09-26T03:29:33.109Z,36.00
2022-09-26T03:32:00.678Z,36.30
2022-09-26T03:34:28.354Z,35.00
2022-09-26T03:36:55.308Z,33.10
2022-09-26T03:39:22.442Z,37.20
2022-09-26T03:41:49.698Z,36.70
2022-09-26T03:44:17.118Z,36.50
2022-09-26T03:46:44.006Z,36.90
2022-09-26T03:49:11.752Z,37.40
2022-09-26T03:51:38.730Z,35.00
2022-09-26T03:54:05.797Z,36.70
2022-09-26T03:56:32.742Z,39.10
2022-09-26T03:58:59.842Z,34.80
2022-09-26T04:01:26.859Z,33.30
2022-09-26T04:03:54.086Z,34.70
2022-09-26T04:06:21.437Z,34.60
2022-09-26T04:08:51.766Z,35.50
2022-09-26T04:11:22.496Z,36.90
2022-09-26T04:13:52.816Z,36.00
2022-09-26T04:16:22.770Z,31.50
2022-09-26T04:18:56.127Z,35.20
2022-09-26T04:21:25.684Z,33.80
2022-09-26T04:23:53.633Z,36.80
2022-09-26T04:26:24.083Z,31.90
2022-09-26T04:28:54.254Z,29.40
2022-09-26T04:31:22.555Z,31.30
2022-09-26T04:33:50.145Z,28.60
2022-09-26T04:36:18.234Z,31.80
2022-09-26T04:38:45.197Z,29.60
2022-09-26T04:41:14.371Z,31.40
2022-09-26T04:43:44.575Z,31.70
2022-09-26T04:46:19.903Z,32.30
2022-09-26T04:48:54.141Z,30.60
2022-09-26T04:51:22.880Z,32.50
2022-09-26T04:53:51.129Z,31.40
2022-09-26T04:56:22.894Z,30.00
2022-09-26T04:58:51.149Z,30.90
2022-09-26T05:01:21.047Z,30.50
2022-09-26T05:03:49.030Z,31.50
2022-09-26T05:06:18.356Z,34.60
2022-09-26T05:08:46.460Z,35.00
2022-09-26T05:11:15.896Z,32.00
2022-09-26T05:13:44.899Z,32.20
2022-09-26T05:16:17.068Z,30.20
2022-09-26T05:18:44.290Z,31.60
2022-09-26T05:21:12.359Z,32.60
2022-09-26T05:23:59.685Z,32.60
2022-09-26T05:26:46.770Z,29.40
2022-09-26T05:29:16.483Z,29.90
2022-09-26T05:31:47.596Z,34.00
2022-09-26T05:34:19.536Z,36.00
2022-09-26T05:36:51.393Z,32.40
2022-09-26T05:39:42.129Z,32.70
2022-09-26T05:42:10.464Z,32.30
2022-09-26T05:44:39.375Z,34.10
2022-09-26T05:47:08.290Z,33.50
2022-09-26T05:49:36.495Z,33.00
2022-09-26T05:52:04.244Z,33.70
2022-09-26T05:54:34.817Z,32.10
2022-09-26T05:57:02.057Z,33.00
2022-09-26T05:59:29.584Z,29.80
2022-09-26T06:01:58.322Z,31.30
2022-09-26T06:04:26.097Z,30.20
2022-09-26T06:06:53.219Z,30.50
2022-09-26T06:09:20.537Z,26.30
2022-09-26T06:11:47.558Z,27.10
2022-09-26T06:14:14.998Z,26.20
2022-09-26T06:16:42.770Z,29.30
2022-09-26T06:19:10.113Z,30.30
2022-09-26T06:21:39.950Z,30.50
2022-09-26T06:24:07.441Z,35.40
2022-09-26T06:26:35.306Z,31.70
2022-09-26T06:29:07.088Z,30.10
2022-09-26T06:31:34.882Z,35.20
2022-09-26T06:34:04.918Z,35.60
2022-09-26T06:36:33.679Z,35.80
2022-09-26T06:39:00.963Z,34.80
2022-09-26T06:41:28.654Z,34.30
2022-09-26T06:43:59.783Z,32.80
2022-09-26T06:46:33.809Z,36.30
2022-09-26T06:49:01.415Z,36.10
2022-09-26T06:51:28.939Z,36.20
2022-09-26T06:53:57.792Z,37.50
2022-09-26T06:56:24.940Z,34.30
2022-09-26T06:58:52.350Z,37.10
2022-09-26T07:01:19.545Z,39.60
2022-09-26T07:03:49.206Z,36.70
2022-09-26T07:06:20.468Z,36.90
2022-09-26T07:09:02.047Z,40.90
2022-09-26T07:11:42.010Z,37.30
2022-09-26T07:14:19.793Z,37.20
2022-09-26T07:16:53.100Z,36.70
2022-09-26T07:19:20.247Z,36.50
2022-09-26T07:21:47.700Z,40.10
2022-09-26T07:24:14.981Z,41.20
2022-09-26T07:26:42.542Z,39.70
2022-09-26T07:29:10.200Z,40.40
2022-09-26T07:31:37.418Z,43.90
2022-09-26T07:34:04.741Z,41.40
2022-09-26T07:36:31.731Z,41.30
2022-09-26T07:39:00.634Z,44.90
2022-09-26T07:41:30.750Z,41.60
2022-09-26T07:47:04.803Z,42.00
2022-09-26T07:49:50.663Z,39.50
2022-09-26T07:52:18.023Z,41.60
2022-09-26T07:54:45.390Z,43.00
2022-09-26T07:57:12.745Z,41.60
2022-09-26T07:59:39.987Z,41.30
2022-09-26T08:02:26.113Z,43.20
2022-09-26T08:05:00.340Z,41.50
2022-09-26T08:07:31.507Z,40.40
2022-09-26T08:10:01.183Z,44.00
2022-09-26T08:12:33.836Z,43.70
2022-09-26T08:15:00.815Z,43.60
2022-09-26T08:17:33.548Z,42.90
2022-09-26T08:20:01.449Z,43.40
2022-09-26T08:22:29.923Z,39.50
2022-09-26T08:25:00.490Z,44.10
2022-09-26T08:27:35.639Z,43.20
2022-09-26T08:30:03.974Z,50.30
2022-09-26T08:32:33.933Z,46.70
2022-09-26T08:35:01.804Z,44.80
2022-09-26T08:37:30.620Z,47.20
2022-09-26T08:40:01.679Z,46.70
2022-09-26T08:42:42.231Z,40.00
2022-09-26T08:45:48.216Z,40.30
2022-09-26T08:48:26.272Z,43.60
2022-09-26T08:50:59.678Z,41.50
2022-09-26T08:53:38.269Z,48.40
2022-09-26T08:56:19.038Z,47.20
2022-09-26T08:58:54.157Z,44.60
2022-09-26T09:01:28.715Z,45.00
2022-09-26T09:04:07.422Z,43.60
2022-09-26T09:06:35.223Z,42.70
2022-09-26T09:09:02.821Z,43.30
2022-09-26T09:12:08.155Z,38.70
2022-09-26T09:15:25.175Z,40.80
2022-09-26T09:18:13.247Z,42.30
2022-09-26T09:21:01.464Z,42.20
2022-09-26T09:23:54.718Z,39.50
2022-09-26T09:29:49.164Z,40.20
2022-09-26T09:32:24.025Z,41.40
2022-09-26T09:34:53.999Z,37.20
2022-09-26T09:39:53.061Z,37.70
2022-09-26T09:43:02.622Z,38.30
2022-09-26T09:45:42.273Z,36.60
2022-09-26T09:48:13.281Z,43.30
2022-09-26T09:50:50.575Z,48.20
2022-09-26T09:53:50.027Z,37.10
2022-09-26T09:56:26.801Z,34.10
2022-09-26T09:59:03.194Z,35.00
2022-09-26T10:01:41.373Z,34.70
2022-09-26T10:04:57.430Z,29.20
2022-09-26T10:07:26.944Z,31.60
2022-09-26T10:09:54.834Z,37.90
2022-09-26T10:12:28.512Z,25.70
2022-09-26T10:15:07.172Z,26.60
2022-09-26T10:17:37.038Z,23.80
2022-09-26T10:20:10.877Z,22.10
2022-09-26T10:22:46.398Z,22.70
2022-09-26T10:25:21.666Z,39.00
2022-09-26T10:28:06.843Z,30.90
2022-09-26T10:30:53.739Z,26.90
2022-09-26T10:33:35.287Z,21.60
2022-09-26T10:36:23.533Z,20.30
2022-09-26T10:39:37.488Z,21.50
2022-09-26T10:42:21.230Z,21.10
2022-09-26T10:44:50.707Z,17.00
2022-09-26T10:47:23.719Z,20.10
2022-09-26T10:50:18.537Z,20.90
2022-09-26T10:52:52.695Z,19.00
2022-09-26T10:55:29.523Z,19.20
2022-09-26T10:58:12.858Z,21.80
2022-09-26T11:00:49.513Z,20.20
2022-09-26T11:03:25.215Z,18.20
2022-09-26T11:05:59.400Z,19.50
2022-09-26T11:08:35.719Z,18.00
2022-09-26T11:11:14.947Z,15.50
2022-09-26T11:14:03.049Z,14.80
2022-09-26T11:16:53.094Z,22.00
2022-09-26T11:19:26.499Z,15.00
2022-09-26T11:22:19.624Z,13.30
2022-09-26T11:24:59.017Z,13.40
2022-09-26T11:27:45.884Z,14.70
2022-09-26T11:30:19.095Z,13.60
2022-09-26T11:32:56.814Z,14.80
2022-09-26T11:35:45.589Z,14.80
2022-09-26T11:38:39.228Z,11.20
2022-09-26T11:41:45.977Z,13.60
2022-09-26T11:44:31.939Z,14.30
2022-09-26T11:47:38.405Z,13.40
2022-09-26T11:50:26.970Z,21.00
2022-09-26T11:53:25.363Z,18.80
2022-09-26T11:56:11.221Z,15.50
2022-09-26T11:59:01.187Z,15.10
2022-09-26T12:01:54.882Z,15.20
2022-09-26T12:04:26.761Z,16.40
2022-09-26T12:07:02.486Z,17.00
2022-09-26T12:09:56.006Z,15.40
2022-09-26T12:12:28.690Z,16.00
2022-09-26T12:15:54.977Z,16.00
2022-09-26T12:18:39.551Z,15.90
2022-09-26T12:21:22.052Z,16.50
2022-09-26T12:23:56.951Z,18.20
2022-09-26T12:26:46.084Z,23.70
2022-09-26T12:29:37.585Z,20.10
2022-09-26T12:32:16.820Z,19.70
2022-09-26T12:34:54.812Z,15.40
2022-09-26T12:37:48.884Z,14.00
2022-09-26T12:40:31.224Z,17.20
2022-09-26T12:43:23.935Z,16.10
2022-09-26T12:46:19.787Z,14.90
2022-09-26T12:48:53.349Z,13.40
2022-09-26T12:51:38.716Z,13.90
2022-09-26T12:54:32.612Z,15.00
2022-09-26T12:57:16.963Z,12.60
2022-09-26T13:00:10.572Z,11.30
2022-09-26T13:03:01.676Z,12.90
2022-09-26T13:06:22.194Z,12.40
2022-09-26T13:09:02.538Z,11.00
2022-09-26T13:14:34.886Z,12.40
2022-09-26T13:17:11.048Z,11.50
2022-09-26T13:19:44.167Z,13.80
2022-09-26T13:22:37.864Z,11.80
2022-09-26T13:25:10.894Z,10.30
2022-09-26T13:27:43.874Z,11.20
2022-09-26T13:30:29.630Z,10.70
2022-09-26T13:33:22.711Z,10.30
2022-09-26T13:35:53.981Z,9.60
2022-09-26T13:38:34.311Z,10.00
2022-09-26T13:41:54.604Z,9.70
2022-09-26T13:44:33.831Z,10.80
2022-09-26T13:47:37.456Z,19.10
2022-09-26T13:50:29.457Z,10.00
2022-09-26T13:53:09.693Z,10.40
2022-09-26T13:55:37.080Z,10.50
2022-09-26T13:58:19.667Z,11.50
2022-09-26T14:00:52.920Z,13.20
2022-09-26T14:03:22.949Z,11.90
2022-09-26T14:05:52.339Z,12.40
2022-09-26T14:08:44.121Z,12.50
2022-09-26T14:11:29.575Z,12.40
2022-09-26T14:14:18.459Z,14.00
2022-09-26T14:16:47.452Z,12.00
2022-09-26T14:19:20.190Z,12.40
2022-09-26T14:22:25.794Z,13.90
2022-09-26T14:24:55.564Z,13.00
2022-09-26T14:27:28.378Z,13.10
2022-09-26T14:30:23.294Z,12.70
2022-09-26T14:33:09.947Z,13.90
2022-09-26T14:35:42.733Z,15.60
2022-09-26T14:38:16.945Z,15.40
2022-09-26T14:40:57.905Z,15.50
2022-09-26T14:43:31.166Z,14.00
2022-09-26T14:46:08.072Z,26.10
2022-09-26T14:48:38.821Z,19.30
2022-09-26T14:51:15.788Z,20.10
2022-09-26T14:53:55.827Z,19.90
2022-09-26T14:56:43.201Z,13.90
2022-09-26T14:59:18.055Z,14.50
2022-09-26T15:01:46.394Z,14.70
2022-09-26T15:04:25.434Z,14.50
2022-09-26T15:06:56.438Z,23.00
2022-09-26T15:09:32.942Z,17.70
2022-09-26T15:12:07.767Z,14.40
2022-09-26T15:14:45.673Z,16.90
2022-09-26T15:17:24.036Z,14.20
2022-09-26T15:19:55.509Z,17.20
2022-09-26T15:22:29.643Z,14.90
2022-09-26T15:25:18.696Z,13.10
2022-09-26T15:27:50.072Z,13.90
2022-09-26T15:30:22.659Z,15.40
2022-09-26T15:32:57.463Z,14.50
2022-09-26T15:35:26.905Z,14.70
2022-09-26T15:38:03.124Z,14.10
2022-09-26T15:40:31.982Z,13.60
2022-09-26T15:43:12.440Z,13.10
2022-09-26T15:45:46.599Z,13.30
2022-09-26T15:48:32.487Z,14.10
2022-09-26T15:51:27.368Z,15.90
2022-09-26T15:54:02.706Z,14.40
2022-09-26T15:56:36.315Z,16.20
2022-09-26T15:59:10.350Z,15.60
2022-09-26T16:01:49.617Z,14.20
2022-09-26T16:04:26.705Z,14.30
2022-09-26T16:07:05.747Z,16.60
2022-09-26T16:09:40.118Z,16.10
2022-09-26T16:12:22.215Z,16.00
2022-09-26T16:15:25.823Z,16.60
2022-09-26T16:17:55.829Z,14.90
2022-09-26T16:20:30.651Z,17.80
2022-09-26T16:23:05.144Z,19.50
2022-09-26T16:25:40.133Z,18.20
2022-09-26T16:28:10.223Z,17.60
2022-09-26T16:30:45.620Z,20.00
2022-09-26T16:33:35.189Z,16.90
2022-09-26T16:36:34.749Z,17.60
2022-09-26T16:39:06.901Z,18.90
2022-09-26T16:44:35.294Z,16.70
2022-09-26T16:47:26.821Z,16.30
2022-09-26T16:49:55.491Z,18.70
2022-09-26T16:52:37.222Z,18.00
2022-09-26T16:55:07.727Z,23.00
2022-09-26T16:58:01.579Z,16.20
2022-09-26T17:00:52.427Z,15.80
2022-09-26T17:03:31.066Z,12.90
2022-09-26T17:06:01.574Z,18.10
2022-09-26T17:08:30.259Z,18.40
2022-09-26T17:11:03.966Z,13.50
2022-09-26T17:13:36.514Z,13.80
2022-09-26T17:16:06.423Z,12.10
2022-09-26T17:18:37.890Z,12.60
2022-09-26T17:21:05.725Z,13.70
2022-09-26T17:23:41.528Z,15.40
2022-09-26T17:26:21.241Z,14.20
2022-09-26T17:28:50.706Z,17.00
2022-09-26T17:31:19.374Z,12.20
2022-09-26T17:33:49.639Z,10.30
2022-09-26T17:36:25.845Z,10.70
2022-09-26T17:38:54.272Z,9.60
2022-09-26T17:41:22.619Z,11.00
2022-09-26T17:43:59.463Z,11.60
2022-09-26T17:46:27.212Z,12.90
2022-09-26T17:48:55.629Z,13.60
2022-09-26T17:51:23.544Z,13.10
2022-09-26T17:53:51.999Z,12.70
2022-09-26T17:56:19.981Z,12.40
2022-09-26T17:58:48.337Z,15.30
2022-09-26T18:01:22.715Z,13.50
2022-09-26T18:03:55.245Z,15.60
2022-09-26T18:06:26.692Z,16.70
2022-09-26T18:08:59.221Z,15.30
2022-09-26T18:11:26.813Z,17.10
2022-09-26T18:13:54.996Z,21.50
2022-09-26T18:16:23.032Z,18.30
2022-09-26T18:18:50.809Z,14.30
2022-09-26T18:21:19.534Z,14.10
2022-09-26T18:23:55.913Z,9.10
2022-09-26T18:26:28.673Z,10.30
2022-09-26T18:28:58.063Z,11.40
2022-09-26T18:31:31.816Z,9.60
2022-09-26T18:34:00.712Z,6.50
2022-09-26T18:36:32.490Z,6.60
2022-09-26T18:38:59.981Z,7.10
2022-09-26T18:41:28.399Z,7.00
2022-09-26T18:44:00.254Z,5.30
2022-09-26T18:46:28.943Z,5.30
2022-09-26T18:48:59.848Z,6.00
2022-09-26T18:51:27.941Z,5.80
2022-09-26T18:53:55.510Z,6.70
2022-09-26T18:56:41.485Z,6.10
2022-09-26T18:59:10.372Z,6.10
2022-09-26T19:01:40.958Z,7.10
2022-09-26T19:04:22.511Z,7.00
2022-09-26T19:07:00.470Z,6.80
2022-09-26T19:09:33.818Z,7.10
2022-09-26T19:12:02.250Z,7.90
2022-09-26T19:14:31.000Z,7.50
2022-09-26T19:16:58.781Z,7.70
2022-09-26T19:19:28.231Z,8.90
2022-09-26T19:21:59.657Z,11.20
2022-09-26T19:24:31.901Z,8.60
2022-09-26T19:27:01.859Z,8.10
2022-09-26T19:29:47.053Z,10.30
2022-09-26T19:32:23.349Z,10.30
2022-09-26T19:35:00.234Z,10.10
2022-09-26T19:37:28.121Z,10.60
2022-09-26T19:39:57.666Z,9.10
2022-09-26T19:42:25.971Z,10.30
2022-09-26T19:44:53.061Z,12.50
2022-09-26T19:47:23.327Z,10.60
2022-09-26T19:49:52.423Z,13.30
2022-09-26T19:52:22.035Z,11.20
2022-09-26T19:54:49.314Z,11.70
2022-09-26T19:57:19.129Z,10.40
2022-09-26T19:59:48.103Z,11.50
2022-09-26T20:02:21.066Z,11.10
2022-09-26T20:04:48.723Z,11.90
2022-09-26T20:07:18.936Z,10.00
2022-09-26T20:09:46.884Z,11.40
2022-09-26T20:12:15.199Z,12.60
2022-09-26T20:14:42.408Z,12.20
2022-09-26T20:17:41.644Z,11.80
2022-09-26T20:20:17.602Z,11.20
2022-09-26T20:22:46.155Z,10.70
2022-09-26T20:25:27.090Z,12.90
2022-09-26T20:27:56.852Z,13.30
2022-09-26T20:30:44.229Z,13.80
2022-09-26T20:33:12.989Z,14.00
2022-09-26T20:35:47.575Z,14.30
2022-09-26T20:38:25.541Z,13.60
2022-09-26T20:41:12.101Z,13.90
2022-09-26T20:44:17.649Z,13.20
2022-09-26T20:46:52.364Z,13.50
2022-09-26T20:49:23.140Z,14.10
2022-09-26T20:54:36.770Z,13.00
2022-09-26T20:57:03.725Z,15.70
2022-09-26T20:59:34.638Z,14.80
2022-09-26T21:02:20.908Z,15.00
2022-09-26T21:04:48.464Z,16.10
2022-09-26T21:07:16.248Z,14.30
2022-09-26T21:09:44.660Z,12.80
2022-09-26T21:12:16.961Z,13.20
2022-09-26T21:14:44.439Z,13.10
2022-09-26T21:17:18.784Z,17.10
2022-09-26T21:19:46.645Z,14.90
2022-09-26T21:22:14.132Z,13.70
2022-09-26T21:24:44.897Z,14.00
2022-09-26T21:29:40.774Z,15.30
2022-09-26T21:32:11.797Z,17.00
2022-09-26T21:34:38.917Z,13.00
2022-09-26T21:37:09.803Z,14.90
2022-09-26T21:39:40.946Z,13.40
2022-09-26T21:42:08.161Z,14.20
2022-09-26T21:44:41.016Z,15.40
2022-09-26T21:47:08.306Z,15.20
2022-09-26T21:49:35.282Z,14.40
2022-09-26T21:52:10.687Z,13.60
2022-09-26T21:54:42.495Z,14.30
2022-09-26T21:57:14.213Z,17.30
2022-09-26T21:59:42.378Z,14.90
2022-09-26T22:02:09.835Z,15.90
2022-09-26T22:04:36.753Z,15.40
2022-09-26T22:07:03.947Z,14.60
2022-09-26T22:09:31.111Z,13.70
2022-09-26T22:11:59.035Z,15.40
2022-09-26T22:14:26.162Z,14.50
2022-09-26T22:16:53.570Z,14.10
2022-09-26T22:19:21.281Z,13.60
2022-09-26T22:21:48.224Z,13.70
2022-09-26T22:24:15.271Z,14.00
2022-09-26T22:26:42.829Z,14.40
2022-09-26T22:29:11.090Z,14.00
2022-09-26T22:31:38.538Z,14.50
2022-09-26T22:34:06.298Z,13.20
2022-09-26T22:36:34.688Z,13.80
2022-09-26T22:39:02.884Z,14.10
2022-09-26T22:41:31.224Z,13.80
2022-09-26T22:43:59.656Z,13.40
2022-09-26T22:46:26.782Z,13.40
2022-09-26T22:48:54.446Z,13.00
2022-09-26T22:51:21.832Z,14.60
2022-09-26T22:53:48.883Z,14.80
2022-09-26T22:56:16.269Z,14.20
2022-09-26T22:58:49.474Z,15.30
2022-09-26T23:01:28.078Z,15.10
2022-09-26T23:03:57.269Z,17.00
2022-09-26T23:06:24.778Z,16.60
2022-09-26T23:08:51.946Z,14.50
2022-09-26T23:11:19.875Z,17.10
2022-09-26T23:13:50.341Z,17.30
2022-09-26T23:16:22.484Z,16.60
2022-09-26T23:18:50.619Z,18.10
2022-09-26T23:21:23.767Z,20.50
2022-09-26T23:23:54.610Z,20.00
2022-09-26T23:26:29.627Z,19.90
2022-09-26T23:28:58.005Z,23.80
2022-09-26T23:31:26.395Z,24.80
2022-09-26T23:33:54.423Z,25.50
2022-09-26T23:36:22.737Z,24.80
2022-09-26T23:38:50.008Z,25.60
2022-09-26T23:41:17.573Z,22.30
2022-09-26T23:43:45.987Z,25.90
2022-09-26T23:46:13.270Z,27.10
2022-09-26T23:48:40.671Z,25.70
2022-09-26T23:51:08.373Z,26.20
2022-09-26T23:53:35.323Z,25.10
2022-09-26T23:56:13.670Z,28.40
2022-09-26T23:58:41.633Z,30.00
